Portada
METAR-TAF:

METAR-TAF

Aeroports :

Aeroport Internacional de Nador

Nador, Marroc

latitud: 34-59-20N, longitud: 003-01-42W, altitud: 175 m

Observació

L'informe es va fer fa 33 minuts, a les 13:00 UTC
Vent 8 kt del Nord-Est
Temperatura 29°C
Humitat 52%
Pressió 1015 hPa
Visibilitat 10 km o més
sense núvols per sota de 1500 mi sense presència de cumulonimbus.

METAR: GMMW 191300Z 05008KT CAVOK 29/18 Q1015 NOSIG

Hora: 14:33 (13:33 UTC)

Pronòstic

L'informe es va fer fa 2 hores i 33 minuts, a les 11:00 UTC
Pronòstic vàlid del 19 a les 12 UTC al 20 a les 18 UTC
Vent 8 kt del Nord
Visibilitat 10 km o més
sense núvols per sota de 1500 mi sense presència de cumulonimbus.

TAF: GMMW 191100Z 1912/2018 01008KT CAVOK

Observacions i pronòstics meteorològics de més de 4000 aeroports (METAR i TAF).

Les estacions disponibles són els punts grocs i vermells al mapa.

Posi el ratolí al punt desitjat per veure el nom de l'estació.

Feu clic per veure les observacions i els pronòstics meteorològics.

Per canviar el mapa: feu clic els botons verds amb una creu de color negre per apropar; al botó verd amb un guió per allunyar la imatge; o en les fletxes verdes per a mapes adjacents.


METAR-TAF: